Thursday, December 18, 2014
16:22 UTC
  |  Log In   |  Register Free
Airport Search:

New Richmond Regional Airport
(KRNH)

New Richmond Regional Airport Diagram
No Airport Diagram Available

FAA data valid effective November 13, 2014 - January 08, 2015 (unless otherwise noted).

 
 
 
 
 
 
 
 
 
 
 
 
 
 

Current Aviation Weather for New Richmond Regional Airport (KRNH)

The most recent METAR observation for KRNH was updated at: 1622
METAR Summary (Translated METAR)
KRNH
181615Z AUTO 18005KT 10SM OVC011 M05/M07 A3030 RMK AO2 T10551071
KOEO
181555Z AUTO 13003KT 10SM OVC012 M05/M07 A3033 RMK AO2 T10531073
(11.6 nm NW from KRNH)
K21D
181551Z AUTO 22003KT 10SM OVC011 M06/M07 A3032 RMK AO2
(16.2 nm SW from KRNH)
TAF Summary (Translated TAF)
KRNH
181139Z 1812/1912 VRB02KT P6SM OVC020 FM182000 VRB02KT P6SM SCT025 BKN100
  Airport Weather Conditions for KRNH

 Current Weather at RNH
22° F
Overcast
Southeast winds at 5.8 mph
RNH NOAA Radar

Pressure: 30.30 in
Humidity: 89%
Wind: Southeast at 5.8 MPH (5 KT)
Dew Point: 19.4°F
Visibility: 10.00 mi


Airport Weather Forecast for KRNH

Translated METAR and TAF for KRNH
Translated METAR for KRNH (1623 UTC 18 December 2014)
found at http://aviationweather.gov/adds/metars/
 
METAR text: KRNH 181615Z AUTO 18005KT 10SM OVC011 M05/M07 A3030 RMK AO2 T10551071
Conditions at: KRNH (NEW RICHMOND MUN, WI, US) observed 1615 UTC 18 December 2014
Temperature: -5.5°C (22°F)
Dewpoint: -7.1°C (19°F) [RH = 88%]
Pressure (altimeter): 30.30 inches Hg (1026.2 mb)
Winds: from the S (180 degrees) at 6 MPH (5 knots; 2.6 m/s)
Visibility: 10 or more miles (16+ km)
Ceiling: 1100 feet AGL
Clouds: overcast cloud deck at 1100 feet AGL
Weather: automated observation with no human augmentation;
there may or may not be significant weather present at this time
Translated TAF for KRNH
Forecast for: KRNH (NEW RICHMOND MUN, WI, US)
TAF Text: KRNH 181139Z 1812/1912 VRB02KT P6SM OVC020
Forecast period: 1200 to 2000 UTC 18 December 2014
Forecast type: FROM: standard forecast or significant change
Winds: variable direction winds at 2 MPH (2 knots; 1.0 m/s)
Visibility: 6 or more miles (10+ km)
Ceiling: 2000 feet AGL
Clouds: overcast cloud deck at 2000 feet AGL
Weather: no significant weather forecast for this period
TAF Text: FM182000 VRB02KT P6SM SCT025 BKN100
Forecast period: 2000 UTC 18 December 2014 to 1200 UTC 19 December 2014
Forecast type: FROM: standard forecast or significant change
Winds: variable direction winds at 2 MPH (2 knots; 1.0 m/s)
Visibility: 6 or more miles (10+ km)
Ceiling: 10000 feet AGL
Clouds: scattered clouds at 2500 feet AGL
broken clouds at 10000 feet AGL
Weather: no significant weather forecast for this period

Find All Airport Services Find A Hotel Find A Rental Car Find A Golf Course Find A Restaurant $100 Hamburger



FBO's on the Field
FBO Company Facility Photos Services Transportation Aviation Fuel Prices: Prices include tax
Catering Weather Repair Courtesy Rental Type 100LL JetA JetA+ MOGAS 8087
 
Griggs Aviation

This FBO has not yet been rated
FS:Independent
Last Updated: Dec-02
Login to update fuel prices
SS:
Contact Griggs AviationMore FBO Information
 
Add another FBO Facility Photos Catering Weather Repair Courtesy Rental Type 100LL JetA JetA+ MOGAS 8087
Services Transportation Aviation Fuel Prices: Prices include tax


model-print
model-print
model-print
model-print